Saddle River, New Jersey
Current Conditions -  °F | °C
As of 8:51 PM on Saturday 22 Nov 2014 (Local Time) from KTEB Reporting Station
Scattered Clouds Scattered Clouds  
Wind Chill: 38°   Ceiling: Unl
Heat Index: 43°   Visibility: 10mi
Dew Point: 17°   Wind: 9mph
Humidity: 35%   Direction: 220°SW
Pressure: 30.22"   Gusts: NA
Location:  41.03°N, 74.1°W
Report Text: KTEB 230151Z 22008KT 10SM SCT110 06/M08 A3022 RMK AO2 SLP231 T00611083
Loading
Personal Weather Stations






























Interactive Weather Map New forecast layout! Learn more

10-Day Weather Forecast

Advertisements
Track Severe Weather on mobile